sensor_id;sensor_type;location;lat;lon;timestamp;P1;durP1;ratioP1;P2;durP2;ratioP2
21426;SDS011;10874;49.452;11.050;2022-08-19T00:00:17;18.27;;;16.57;;
21426;SDS011;10874;49.452;11.050;2022-08-19T00:02:45;17.80;;;15.97;;
21426;SDS011;10874;49.452;11.050;2022-08-19T00:05:16;17.03;;;15.53;;
21426;SDS011;10874;49.452;11.050;2022-08-19T00:07:43;18.57;;;16.87;;
21426;SDS011;10874;49.452;11.050;2022-08-19T00:10:11;18.27;;;16.57;;
21426;SDS011;10874;49.452;11.050;2022-08-19T00:12:38;20.83;;;18.90;;
21426;SDS011;10874;49.452;11.050;2022-08-19T00:15:13;20.03;;;18.13;;
21426;SDS011;10874;49.452;11.050;2022-08-19T00:17:42;20.07;;;18.27;;
21426;SDS011;10874;49.452;11.050;2022-08-19T00:20:10;19.77;;;17.97;;
21426;SDS011;10874;49.452;11.050;2022-08-19T00:22:38;20.13;;;18.40;;
21426;SDS011;10874;49.452;11.050;2022-08-19T00:25:05;19.50;;;17.50;;
21426;SDS011;10874;49.452;11.050;2022-08-19T00:27:33;18.30;;;16.63;;
21426;SDS011;10874;49.452;11.050;2022-08-19T00:30:00;18.87;;;17.17;;
21426;SDS011;10874;49.452;11.050;2022-08-19T00:32:28;17.97;;;16.20;;
21426;SDS011;10874;49.452;11.050;2022-08-19T00:34:56;19.60;;;17.80;;
21426;SDS011;10874;49.452;11.050;2022-08-19T00:37:23;20.70;;;18.80;;
21426;SDS011;10874;49.452;11.050;2022-08-19T00:39:52;18.90;;;17.20;;
21426;SDS011;10874;49.452;11.050;2022-08-19T00:42:20;19.90;;;18.10;;
21426;SDS011;10874;49.452;11.050;2022-08-19T00:44:47;19.43;;;17.53;;
21426;SDS011;10874;49.452;11.050;2022-08-19T00:47:14;19.83;;;18.13;;
21426;SDS011;10874;49.452;11.050;2022-08-19T00:49:46;21.13;;;19.20;;
21426;SDS011;10874;49.452;11.050;2022-08-19T00:52:27;20.07;;;18.13;;
21426;SDS011;10874;49.452;11.050;2022-08-19T00:54:58;20.47;;;18.47;;
21426;SDS011;10874;49.452;11.050;2022-08-19T00:57:28;20.90;;;18.97;;
21426;SDS011;10874;49.452;11.050;2022-08-19T00:59:56;21.50;;;19.40;;
21426;SDS011;10874;49.452;11.050;2022-08-19T01:02:28;20.20;;;18.33;;
21426;SDS011;10874;49.452;11.050;2022-08-19T01:04:55;21.33;;;19.30;;
21426;SDS011;10874;49.452;11.050;2022-08-19T01:07:22;21.97;;;19.93;;
21426;SDS011;10874;49.452;11.050;2022-08-19T01:09:50;21.40;;;19.30;;
21426;SDS011;10874;49.452;11.050;2022-08-19T01:12:17;20.33;;;18.50;;
21426;SDS011;10874;49.452;11.050;2022-08-19T01:14:44;20.30;;;18.23;;
21426;SDS011;10874;49.452;11.050;2022-08-19T01:17:12;20.30;;;18.50;;
21426;SDS011;10874;49.452;11.050;2022-08-19T01:19:40;20.00;;;18.10;;
21426;SDS011;10874;49.452;11.050;2022-08-19T01:24:48;20.37;;;18.40;;
21426;SDS011;10874;49.452;11.050;2022-08-19T01:27:16;19.13;;;17.53;;
21426;SDS011;10874;49.452;11.050;2022-08-19T01:29:43;19.53;;;17.83;;
21426;SDS011;10874;49.452;11.050;2022-08-19T01:32:12;18.97;;;17.20;;
21426;SDS011;10874;49.452;11.050;2022-08-19T01:35:00;18.73;;;17.03;;
21426;SDS011;10874;49.452;11.050;2022-08-19T01:37:29;20.07;;;18.27;;
21426;SDS011;10874;49.452;11.050;2022-08-19T01:39:57;20.50;;;18.60;;
21426;SDS011;10874;49.452;11.050;2022-08-19T01:42:24;19.50;;;17.60;;
21426;SDS011;10874;49.452;11.050;2022-08-19T01:44:56;20.17;;;18.03;;
21426;SDS011;10874;49.452;11.050;2022-08-19T01:47:23;18.83;;;17.07;;
21426;SDS011;10874;49.452;11.050;2022-08-19T01:49:50;20.20;;;18.30;;
21426;SDS011;10874;49.452;11.050;2022-08-19T01:52:17;20.80;;;18.80;;
21426;SDS011;10874;49.452;11.050;2022-08-19T01:54:44;20.47;;;18.47;;
21426;SDS011;10874;49.452;11.050;2022-08-19T01:57:12;20.43;;;18.23;;
21426;SDS011;10874;49.452;11.050;2022-08-19T01:59:39;19.77;;;17.97;;
21426;SDS011;10874;49.452;11.050;2022-08-19T02:02:07;20.97;;;19.07;;
21426;SDS011;10874;49.452;11.050;2022-08-19T02:04:35;18.93;;;17.23;;
21426;SDS011;10874;49.452;11.050;2022-08-19T02:07:02;20.77;;;18.80;;
21426;SDS011;10874;49.452;11.050;2022-08-19T02:09:30;20.60;;;18.80;;
21426;SDS011;10874;49.452;11.050;2022-08-19T02:11:57;22.50;;;20.13;;
21426;SDS011;10874;49.452;11.050;2022-08-19T02:14:24;22.37;;;20.20;;
21426;SDS011;10874;49.452;11.050;2022-08-19T02:16:51;22.83;;;20.53;;
21426;SDS011;10874;49.452;11.050;2022-08-19T02:19:18;22.17;;;20.07;;
21426;SDS011;10874;49.452;11.050;2022-08-19T02:21:46;20.47;;;18.47;;
21426;SDS011;10874;49.452;11.050;2022-08-19T02:24:12;22.33;;;20.23;;
21426;SDS011;10874;49.452;11.050;2022-08-19T02:26:39;24.10;;;21.83;;
21426;SDS011;10874;49.452;11.050;2022-08-19T02:29:07;20.87;;;18.77;;
21426;SDS011;10874;49.452;11.050;2022-08-19T02:31:34;22.53;;;20.43;;
21426;SDS011;10874;49.452;11.050;2022-08-19T02:34:01;25.33;;;22.73;;
21426;SDS011;10874;49.452;11.050;2022-08-19T02:36:28;23.63;;;21.40;;
21426;SDS011;10874;49.452;11.050;2022-08-19T02:38:56;22.40;;;20.30;;
21426;SDS011;10874;49.452;11.050;2022-08-19T02:41:25;24.87;;;22.47;;
21426;SDS011;10874;49.452;11.050;2022-08-19T02:43:53;24.50;;;22.20;;
21426;SDS011;10874;49.452;11.050;2022-08-19T02:46:40;26.23;;;23.60;;
21426;SDS011;10874;49.452;11.050;2022-08-19T02:49:07;23.23;;;21.07;;
21426;SDS011;10874;49.452;11.050;2022-08-19T02:51:36;27.43;;;24.53;;
21426;SDS011;10874;49.452;11.050;2022-08-19T02:54:03;24.47;;;21.87;;
21426;SDS011;10874;49.452;11.050;2022-08-19T02:56:30;25.57;;;23.07;;
21426;SDS011;10874;49.452;11.050;2022-08-19T02:58:57;26.30;;;23.70;;
21426;SDS011;10874;49.452;11.050;2022-08-19T03:01:31;23.33;;;21.13;;
21426;SDS011;10874;49.452;11.050;2022-08-19T03:04:02;23.77;;;21.27;;
21426;SDS011;10874;49.452;11.050;2022-08-19T03:06:29;23.43;;;21.13;;
21426;SDS011;10874;49.452;11.050;2022-08-19T03:08:56;24.50;;;22.07;;
21426;SDS011;10874;49.452;11.050;2022-08-19T03:11:27;26.40;;;23.90;;
21426;SDS011;10874;49.452;11.050;2022-08-19T03:13:54;25.10;;;22.50;;
21426;SDS011;10874;49.452;11.050;2022-08-19T03:16:22;26.33;;;23.83;;
21426;SDS011;10874;49.452;11.050;2022-08-19T03:18:50;22.93;;;20.73;;
21426;SDS011;10874;49.452;11.050;2022-08-19T03:21:18;24.83;;;22.40;;
21426;SDS011;10874;49.452;11.050;2022-08-19T03:23:46;25.80;;;23.27;;
21426;SDS011;10874;49.452;11.050;2022-08-19T03:26:13;26.47;;;23.87;;
21426;SDS011;10874;49.452;11.050;2022-08-19T03:28:43;24.17;;;21.67;;
21426;SDS011;10874;49.452;11.050;2022-08-19T03:31:18;27.63;;;24.83;;
21426;SDS011;10874;49.452;11.050;2022-08-19T03:34:06;27.80;;;24.90;;
21426;SDS011;10874;49.452;11.050;2022-08-19T03:36:33;26.17;;;23.57;;
21426;SDS011;10874;49.452;11.050;2022-08-19T03:39:00;26.73;;;24.00;;
21426;SDS011;10874;49.452;11.050;2022-08-19T03:41:28;25.60;;;23.07;;
21426;SDS011;10874;49.452;11.050;2022-08-19T03:44:11;26.60;;;23.90;;
21426;SDS011;10874;49.452;11.050;2022-08-19T03:46:44;25.40;;;22.90;;
21426;SDS011;10874;49.452;11.050;2022-08-19T03:49:11;26.80;;;24.10;;
21426;SDS011;10874;49.452;11.050;2022-08-19T03:51:40;27.03;;;24.33;;
21426;SDS011;10874;49.452;11.050;2022-08-19T03:54:08;25.93;;;23.23;;
21426;SDS011;10874;49.452;11.050;2022-08-19T03:56:37;26.00;;;23.40;;
21426;SDS011;10874;49.452;11.050;2022-08-19T03:59:05;26.70;;;23.90;;
21426;SDS011;10874;49.452;11.050;2022-08-19T04:01:32;25.63;;;23.00;;
21426;SDS011;10874;49.452;11.050;2022-08-19T04:04:01;26.20;;;23.47;;
21426;SDS011;10874;49.452;11.050;2022-08-19T04:06:31;26.40;;;23.67;;
21426;SDS011;10874;49.452;11.050;2022-08-19T04:08:59;26.53;;;23.93;;
21426;SDS011;10874;49.452;11.050;2022-08-19T04:11:30;27.37;;;24.53;;
21426;SDS011;10874;49.452;11.050;2022-08-19T04:14:11;26.53;;;23.93;;
21426;SDS011;10874;49.452;11.050;2022-08-19T04:16:38;26.93;;;24.23;;
21426;SDS011;10874;49.452;11.050;2022-08-19T04:19:05;27.37;;;24.57;;
21426;SDS011;10874;49.452;11.050;2022-08-19T04:21:32;27.23;;;24.57;;
21426;SDS011;10874;49.452;11.050;2022-08-19T04:23:59;27.37;;;24.67;;
21426;SDS011;10874;49.452;11.050;2022-08-19T04:26:33;26.30;;;23.63;;
21426;SDS011;10874;49.452;11.050;2022-08-19T04:29:05;26.90;;;23.87;;
21426;SDS011;10874;49.452;11.050;2022-08-19T04:31:37;25.47;;;22.97;;
21426;SDS011;10874;49.452;11.050;2022-08-19T04:34:05;28.07;;;25.27;;
21426;SDS011;10874;49.452;11.050;2022-08-19T04:36:33;27.07;;;24.17;;
21426;SDS011;10874;49.452;11.050;2022-08-19T04:39:03;27.73;;;24.83;;
21426;SDS011;10874;49.452;11.050;2022-08-19T04:41:30;27.17;;;24.37;;
21426;SDS011;10874;49.452;11.050;2022-08-19T04:44:16;25.23;;;22.27;;
21426;SDS011;10874;49.452;11.050;2022-08-19T04:46:45;28.03;;;25.03;;
21426;SDS011;10874;49.452;11.050;2022-08-19T04:49:18;26.83;;;24.03;;
21426;SDS011;10874;49.452;11.050;2022-08-19T04:51:46;28.53;;;24.73;;
21426;SDS011;10874;49.452;11.050;2022-08-19T04:54:14;28.13;;;25.30;;
21426;SDS011;10874;49.452;11.050;2022-08-19T04:57:02;27.00;;;24.20;;
21426;SDS011;10874;49.452;11.050;2022-08-19T04:59:30;27.90;;;24.77;;
21426;SDS011;10874;49.452;11.050;2022-08-19T05:01:56;29.10;;;24.90;;
21426;SDS011;10874;49.452;11.050;2022-08-19T05:04:23;30.30;;;24.93;;
21426;SDS011;10874;49.452;11.050;2022-08-19T05:06:50;27.73;;;24.60;;
21426;SDS011;10874;49.452;11.050;2022-08-19T05:09:25;28.37;;;25.37;;
21426;SDS011;10874;49.452;11.050;2022-08-19T05:11:53;29.83;;;26.73;;
21426;SDS011;10874;49.452;11.050;2022-08-19T05:14:20;29.50;;;26.30;;
21426;SDS011;10874;49.452;11.050;2022-08-19T05:16:48;27.50;;;24.60;;
21426;SDS011;10874;49.452;11.050;2022-08-19T05:19:15;30.10;;;26.90;;
21426;SDS011;10874;49.452;11.050;2022-08-19T05:22:00;31.17;;;27.43;;
21426;SDS011;10874;49.452;11.050;2022-08-19T05:24:45;29.37;;;26.27;;
21426;SDS011;10874;49.452;11.050;2022-08-19T05:27:33;30.50;;;26.80;;
21426;SDS011;10874;49.452;11.050;2022-08-19T05:30:00;30.87;;;27.47;;
21426;SDS011;10874;49.452;11.050;2022-08-19T05:32:27;29.00;;;25.93;;
21426;SDS011;10874;49.452;11.050;2022-08-19T05:34:54;27.77;;;24.83;;
21426;SDS011;10874;49.452;11.050;2022-08-19T05:37:21;29.87;;;26.70;;
21426;SDS011;10874;49.452;11.050;2022-08-19T05:39:48;29.83;;;26.43;;
21426;SDS011;10874;49.452;11.050;2022-08-19T05:42:17;31.47;;;27.73;;
21426;SDS011;10874;49.452;11.050;2022-08-19T05:44:47;28.60;;;25.43;;
21426;SDS011;10874;49.452;11.050;2022-08-19T05:47:15;26.87;;;24.03;;
21426;SDS011;10874;49.452;11.050;2022-08-19T05:49:43;31.23;;;26.27;;
21426;SDS011;10874;49.452;11.050;2022-08-19T05:52:11;29.60;;;26.40;;
21426;SDS011;10874;49.452;11.050;2022-08-19T05:54:39;27.13;;;24.27;;
21426;SDS011;10874;49.452;11.050;2022-08-19T05:57:08;29.83;;;26.70;;
21426;SDS011;10874;49.452;11.050;2022-08-19T05:59:39;29.30;;;26.20;;
21426;SDS011;10874;49.452;11.050;2022-08-19T06:02:06;27.00;;;24.27;;
21426;SDS011;10874;49.452;11.050;2022-08-19T06:04:34;28.20;;;25.30;;
21426;SDS011;10874;49.452;11.050;2022-08-19T06:07:01;26.73;;;23.93;;
21426;SDS011;10874;49.452;11.050;2022-08-19T06:09:40;26.43;;;23.53;;
21426;SDS011;10874;49.452;11.050;2022-08-19T06:12:09;26.13;;;22.80;;
21426;SDS011;10874;49.452;11.050;2022-08-19T06:14:36;25.43;;;22.80;;
21426;SDS011;10874;49.452;11.050;2022-08-19T06:17:07;26.30;;;23.50;;
21426;SDS011;10874;49.452;11.050;2022-08-19T06:19:34;23.67;;;21.27;;
21426;SDS011;10874;49.452;11.050;2022-08-19T06:22:07;23.10;;;20.80;;
21426;SDS011;10874;49.452;11.050;2022-08-19T06:24:34;22.20;;;20.00;;
21426;SDS011;10874;49.452;11.050;2022-08-19T06:27:02;23.43;;;21.13;;
21426;SDS011;10874;49.452;11.050;2022-08-19T06:29:29;24.63;;;22.07;;
21426;SDS011;10874;49.452;11.050;2022-08-19T06:31:57;22.93;;;20.63;;
21426;SDS011;10874;49.452;11.050;2022-08-19T06:34:25;24.00;;;21.60;;
21426;SDS011;10874;49.452;11.050;2022-08-19T06:36:54;23.70;;;21.37;;
21426;SDS011;10874;49.452;11.050;2022-08-19T06:39:23;23.77;;;21.40;;
21426;SDS011;10874;49.452;11.050;2022-08-19T06:41:51;23.83;;;21.63;;
21426;SDS011;10874;49.452;11.050;2022-08-19T06:44:24;25.03;;;22.43;;
21426;SDS011;10874;49.452;11.050;2022-08-19T06:46:53;23.23;;;20.83;;
21426;SDS011;10874;49.452;11.050;2022-08-19T06:49:21;22.00;;;19.70;;
21426;SDS011;10874;49.452;11.050;2022-08-19T06:51:48;20.90;;;18.83;;
21426;SDS011;10874;49.452;11.050;2022-08-19T06:54:18;23.40;;;21.10;;
21426;SDS011;10874;49.452;11.050;2022-08-19T06:56:46;21.87;;;19.57;;
21426;SDS011;10874;49.452;11.050;2022-08-19T06:59:14;21.67;;;19.57;;
21426;SDS011;10874;49.452;11.050;2022-08-19T07:01:44;20.97;;;18.87;;
21426;SDS011;10874;49.452;11.050;2022-08-19T07:04:15;21.10;;;19.10;;
21426;SDS011;10874;49.452;11.050;2022-08-19T07:06:42;20.17;;;18.17;;
21426;SDS011;10874;49.452;11.050;2022-08-19T07:09:11;19.67;;;17.73;;
21426;SDS011;10874;49.452;11.050;2022-08-19T07:11:43;20.50;;;18.50;;
21426;SDS011;10874;49.452;11.050;2022-08-19T07:14:10;19.63;;;17.73;;
21426;SDS011;10874;49.452;11.050;2022-08-19T07:16:47;20.27;;;18.30;;
21426;SDS011;10874;49.452;11.050;2022-08-19T07:19:14;21.80;;;19.60;;
21426;SDS011;10874;49.452;11.050;2022-08-19T07:21:42;20.87;;;18.43;;
21426;SDS011;10874;49.452;11.050;2022-08-19T07:24:09;17.20;;;15.57;;
21426;SDS011;10874;49.452;11.050;2022-08-19T07:26:40;16.77;;;15.10;;
21426;SDS011;10874;49.452;11.050;2022-08-19T07:29:08;17.03;;;15.33;;
21426;SDS011;10874;49.452;11.050;2022-08-19T07:31:36;17.17;;;15.47;;
21426;SDS011;10874;49.452;11.050;2022-08-19T07:34:05;16.53;;;14.93;;
21426;SDS011;10874;49.452;11.050;2022-08-19T07:36:36;15.77;;;14.37;;
21426;SDS011;10874;49.452;11.050;2022-08-19T07:39:05;15.97;;;14.47;;
21426;SDS011;10874;49.452;11.050;2022-08-19T07:41:34;16.07;;;14.67;;
21426;SDS011;10874;49.452;11.050;2022-08-19T07:44:06;15.03;;;13.63;;
21426;SDS011;10874;49.452;11.050;2022-08-19T07:46:42;15.40;;;13.97;;
21426;SDS011;10874;49.452;11.050;2022-08-19T07:49:13;15.80;;;14.40;;
21426;SDS011;10874;49.452;11.050;2022-08-19T07:51:50;16.87;;;15.17;;
21426;SDS011;10874;49.452;11.050;2022-08-19T07:54:17;17.57;;;15.77;;
21426;SDS011;10874;49.452;11.050;2022-08-19T07:56:44;17.40;;;15.70;;
21426;SDS011;10874;49.452;11.050;2022-08-19T07:59:11;16.73;;;15.23;;
21426;SDS011;10874;49.452;11.050;2022-08-19T08:01:38;16.93;;;15.33;;
21426;SDS011;10874;49.452;11.050;2022-08-19T08:04:07;18.20;;;16.40;;
21426;SDS011;10874;49.452;11.050;2022-08-19T08:06:53;17.00;;;15.37;;
21426;SDS011;10874;49.452;11.050;2022-08-19T08:09:40;17.67;;;15.97;;
21426;SDS011;10874;49.452;11.050;2022-08-19T08:12:10;15.90;;;14.40;;
21426;SDS011;10874;49.452;11.050;2022-08-19T08:14:58;17.87;;;16.07;;
21426;SDS011;10874;49.452;11.050;2022-08-19T08:17:26;17.67;;;15.87;;
21426;SDS011;10874;49.452;11.050;2022-08-19T08:20:14;18.10;;;16.40;;
21426;SDS011;10874;49.452;11.050;2022-08-19T08:22:44;19.07;;;17.17;;
21426;SDS011;10874;49.452;11.050;2022-08-19T08:25:29;19.53;;;17.50;;
21426;SDS011;10874;49.452;11.050;2022-08-19T08:27:59;18.93;;;17.03;;
21426;SDS011;10874;49.452;11.050;2022-08-19T08:30:27;21.17;;;18.70;;
21426;SDS011;10874;49.452;11.050;2022-08-19T08:32:59;20.50;;;18.40;;
21426;SDS011;10874;49.452;11.050;2022-08-19T08:35:28;22.33;;;20.07;;
21426;SDS011;10874;49.452;11.050;2022-08-19T08:37:57;25.87;;;22.77;;
21426;SDS011;10874;49.452;11.050;2022-08-19T08:40:28;24.47;;;21.87;;
21426;SDS011;10874;49.452;11.050;2022-08-19T08:43:03;24.20;;;21.73;;
21426;SDS011;10874;49.452;11.050;2022-08-19T08:45:38;23.97;;;21.47;;
21426;SDS011;10874;49.452;11.050;2022-08-19T08:48:19;24.77;;;22.27;;
21426;SDS011;10874;49.452;11.050;2022-08-19T08:50:50;24.97;;;22.30;;
21426;SDS011;10874;49.452;11.050;2022-08-19T08:53:20;25.90;;;23.17;;
21426;SDS011;10874;49.452;11.050;2022-08-19T08:55:58;26.00;;;22.63;;
21426;SDS011;10874;49.452;11.050;2022-08-19T08:58:30;24.73;;;22.23;;
21426;SDS011;10874;49.452;11.050;2022-08-19T09:00:58;25.70;;;22.90;;
21426;SDS011;10874;49.452;11.050;2022-08-19T09:03:25;26.83;;;23.80;;
21426;SDS011;10874;49.452;11.050;2022-08-19T09:06:04;25.83;;;23.13;;
21426;SDS011;10874;49.452;11.050;2022-08-19T09:08:45;26.10;;;23.33;;
21426;SDS011;10874;49.452;11.050;2022-08-19T09:11:19;23.87;;;21.20;;
21426;SDS011;10874;49.452;11.050;2022-08-19T09:17:14;24.40;;;21.77;;
21426;SDS011;10874;49.452;11.050;2022-08-19T09:22:39;23.57;;;21.07;;
21426;SDS011;10874;49.452;11.050;2022-08-19T09:25:07;22.57;;;20.13;;
21426;SDS011;10874;49.452;11.050;2022-08-19T09:27:36;21.83;;;19.63;;
21426;SDS011;10874;49.452;11.050;2022-08-19T09:30:10;20.77;;;18.57;;
21426;SDS011;10874;49.452;11.050;2022-08-19T09:32:38;21.07;;;18.93;;
21426;SDS011;10874;49.452;11.050;2022-08-19T09:35:08;21.73;;;19.40;;
21426;SDS011;10874;49.452;11.050;2022-08-19T09:37:35;21.57;;;19.27;;
21426;SDS011;10874;49.452;11.050;2022-08-19T09:40:03;21.47;;;19.27;;
21426;SDS011;10874;49.452;11.050;2022-08-19T09:42:30;23.00;;;20.57;;
21426;SDS011;10874;49.452;11.050;2022-08-19T09:45:01;22.07;;;19.77;;
21426;SDS011;10874;49.452;11.050;2022-08-19T09:47:31;21.73;;;19.43;;
21426;SDS011;10874;49.452;11.050;2022-08-19T09:49:59;22.00;;;19.70;;
21426;SDS011;10874;49.452;11.050;2022-08-19T09:52:25;21.73;;;19.53;;
21426;SDS011;10874;49.452;11.050;2022-08-19T09:54:58;23.00;;;20.70;;
21426;SDS011;10874;49.452;11.050;2022-08-19T09:57:27;22.93;;;20.30;;
21426;SDS011;10874;49.452;11.050;2022-08-19T09:59:55;24.00;;;21.50;;
21426;SDS011;10874;49.452;11.050;2022-08-19T10:02:22;22.53;;;20.13;;
21426;SDS011;10874;49.452;11.050;2022-08-19T10:04:54;23.67;;;21.23;;
21426;SDS011;10874;49.452;11.050;2022-08-19T10:07:52;23.93;;;21.30;;
21426;SDS011;10874;49.452;11.050;2022-08-19T10:10:22;24.80;;;22.27;;
21426;SDS011;10874;49.452;11.050;2022-08-19T10:12:50;24.27;;;21.77;;
21426;SDS011;10874;49.452;11.050;2022-08-19T10:15:18;23.63;;;20.47;;
21426;SDS011;10874;49.452;11.050;2022-08-19T10:17:56;24.73;;;20.70;;
21426;SDS011;10874;49.452;11.050;2022-08-19T10:20:25;23.07;;;20.67;;
21426;SDS011;10874;49.452;11.050;2022-08-19T10:22:52;23.57;;;21.17;;
21426;SDS011;10874;49.452;11.050;2022-08-19T10:25:19;21.77;;;19.53;;
21426;SDS011;10874;49.452;11.050;2022-08-19T10:27:46;25.63;;;20.03;;
21426;SDS011;10874;49.452;11.050;2022-08-19T10:30:17;22.57;;;20.03;;
21426;SDS011;10874;49.452;11.050;2022-08-19T10:32:45;21.83;;;19.53;;
21426;SDS011;10874;49.452;11.050;2022-08-19T10:35:13;21.37;;;19.17;;
21426;SDS011;10874;49.452;11.050;2022-08-19T10:37:47;23.43;;;20.87;;
21426;SDS011;10874;49.452;11.050;2022-08-19T10:40:26;22.20;;;19.83;;
21426;SDS011;10874;49.452;11.050;2022-08-19T10:42:53;22.57;;;19.87;;
21426;SDS011;10874;49.452;11.050;2022-08-19T10:45:22;20.90;;;18.80;;
21426;SDS011;10874;49.452;11.050;2022-08-19T10:47:54;21.53;;;19.43;;
21426;SDS011;10874;49.452;11.050;2022-08-19T10:50:21;20.53;;;18.50;;
21426;SDS011;10874;49.452;11.050;2022-08-19T10:53:07;20.80;;;18.63;;
21426;SDS011;10874;49.452;11.050;2022-08-19T10:55:37;20.77;;;18.73;;
21426;SDS011;10874;49.452;11.050;2022-08-19T10:58:23;21.27;;;19.03;;
21426;SDS011;10874;49.452;11.050;2022-08-19T11:00:52;20.30;;;18.23;;
21426;SDS011;10874;49.452;11.050;2022-08-19T11:03:20;20.70;;;18.70;;
21426;SDS011;10874;49.452;11.050;2022-08-19T11:05:56;21.07;;;19.03;;
21426;SDS011;10874;49.452;11.050;2022-08-19T11:08:23;20.83;;;18.63;;
21426;SDS011;10874;49.452;11.050;2022-08-19T11:10:51;20.20;;;18.23;;
21426;SDS011;10874;49.452;11.050;2022-08-19T11:13:20;20.60;;;18.57;;
21426;SDS011;10874;49.452;11.050;2022-08-19T11:15:47;20.37;;;18.37;;
21426;SDS011;10874;49.452;11.050;2022-08-19T11:18:14;20.70;;;18.60;;
21426;SDS011;10874;49.452;11.050;2022-08-19T11:20:41;20.87;;;18.87;;
21426;SDS011;10874;49.452;11.050;2022-08-19T11:23:07;20.87;;;18.77;;
21426;SDS011;10874;49.452;11.050;2022-08-19T11:25:34;19.87;;;17.87;;
21426;SDS011;10874;49.452;11.050;2022-08-19T11:28:04;19.13;;;17.23;;
21426;SDS011;10874;49.452;11.050;2022-08-19T11:30:31;20.13;;;18.03;;
21426;SDS011;10874;49.452;11.050;2022-08-19T11:32:58;20.20;;;18.30;;
21426;SDS011;10874;49.452;11.050;2022-08-19T11:35:27;20.50;;;18.40;;
21426;SDS011;10874;49.452;11.050;2022-08-19T11:37:54;20.97;;;19.07;;
21426;SDS011;10874;49.452;11.050;2022-08-19T11:40:22;19.70;;;17.60;;
21426;SDS011;10874;49.452;11.050;2022-08-19T11:42:49;19.97;;;18.00;;
21426;SDS011;10874;49.452;11.050;2022-08-19T11:45:23;20.77;;;18.63;;
21426;SDS011;10874;49.452;11.050;2022-08-19T11:47:50;19.70;;;17.87;;
21426;SDS011;10874;49.452;11.050;2022-08-19T11:50:17;20.17;;;18.27;;
21426;SDS011;10874;49.452;11.050;2022-08-19T11:52:45;18.67;;;16.87;;
21426;SDS011;10874;49.452;11.050;2022-08-19T11:55:13;22.00;;;19.23;;
21426;SDS011;10874;49.452;11.050;2022-08-19T11:57:40;22.23;;;19.70;;
21426;SDS011;10874;49.452;11.050;2022-08-19T12:00:07;21.83;;;19.73;;
21426;SDS011;10874;49.452;11.050;2022-08-19T12:02:35;19.53;;;17.73;;
21426;SDS011;10874;49.452;11.050;2022-08-19T12:05:03;21.77;;;19.50;;
21426;SDS011;10874;49.452;11.050;2022-08-19T12:07:35;21.63;;;19.53;;
21426;SDS011;10874;49.452;11.050;2022-08-19T12:10:02;19.83;;;18.03;;
21426;SDS011;10874;49.452;11.050;2022-08-19T12:12:29;20.97;;;18.87;;
21426;SDS011;10874;49.452;11.050;2022-08-19T12:14:56;20.80;;;18.80;;
21426;SDS011;10874;49.452;11.050;2022-08-19T12:17:25;20.87;;;18.87;;
21426;SDS011;10874;49.452;11.050;2022-08-19T12:19:53;19.73;;;17.83;;
21426;SDS011;10874;49.452;11.050;2022-08-19T12:22:19;22.07;;;20.07;;
21426;SDS011;10874;49.452;11.050;2022-08-19T12:24:48;21.07;;;19.07;;
21426;SDS011;10874;49.452;11.050;2022-08-19T12:27:17;20.70;;;18.63;;
21426;SDS011;10874;49.452;11.050;2022-08-19T12:30:05;21.07;;;18.90;;
21426;SDS011;10874;49.452;11.050;2022-08-19T12:32:32;20.23;;;18.33;;
21426;SDS011;10874;49.452;11.050;2022-08-19T12:34:59;21.77;;;19.47;;
21426;SDS011;10874;49.452;11.050;2022-08-19T12:37:26;22.17;;;19.83;;
21426;SDS011;10874;49.452;11.050;2022-08-19T12:39:53;23.00;;;20.60;;
21426;SDS011;10874;49.452;11.050;2022-08-19T12:42:20;23.53;;;21.20;;
21426;SDS011;10874;49.452;11.050;2022-08-19T12:44:49;23.27;;;20.83;;
21426;SDS011;10874;49.452;11.050;2022-08-19T12:47:18;23.07;;;20.87;;
21426;SDS011;10874;49.452;11.050;2022-08-19T12:49:45;23.80;;;21.43;;
21426;SDS011;10874;49.452;11.050;2022-08-19T12:52:21;24.80;;;22.30;;
21426;SDS011;10874;49.452;11.050;2022-08-19T12:54:50;24.27;;;21.87;;
21426;SDS011;10874;49.452;11.050;2022-08-19T12:57:21;23.77;;;21.47;;
21426;SDS011;10874;49.452;11.050;2022-08-19T12:59:58;24.90;;;22.33;;
21426;SDS011;10874;49.452;11.050;2022-08-19T13:02:25;24.70;;;22.30;;
21426;SDS011;10874;49.452;11.050;2022-08-19T13:04:52;25.30;;;22.77;;
21426;SDS011;10874;49.452;11.050;2022-08-19T13:07:20;26.57;;;23.97;;
21426;SDS011;10874;49.452;11.050;2022-08-19T13:09:50;24.70;;;22.30;;
21426;SDS011;10874;49.452;11.050;2022-08-19T13:12:18;25.17;;;22.67;;
21426;SDS011;10874;49.452;11.050;2022-08-19T13:14:50;22.37;;;20.17;;
21426;SDS011;10874;49.452;11.050;2022-08-19T13:17:19;24.87;;;22.53;;
21426;SDS011;10874;49.452;11.050;2022-08-19T13:19:45;25.00;;;22.40;;
21426;SDS011;10874;49.452;11.050;2022-08-19T13:22:12;26.10;;;23.33;;
21426;SDS011;10874;49.452;11.050;2022-08-19T13:24:40;26.00;;;23.30;;
21426;SDS011;10874;49.452;11.050;2022-08-19T13:27:13;22.53;;;20.23;;
21426;SDS011;10874;49.452;11.050;2022-08-19T13:29:40;25.40;;;22.97;;
21426;SDS011;10874;49.452;11.050;2022-08-19T13:32:26;25.70;;;23.30;;
21426;SDS011;10874;49.452;11.050;2022-08-19T13:35:11;23.67;;;20.93;;
21426;SDS011;10874;49.452;11.050;2022-08-19T13:37:43;24.73;;;22.43;;
21426;SDS011;10874;49.452;11.050;2022-08-19T13:40:14;24.27;;;21.87;;
21426;SDS011;10874;49.452;11.050;2022-08-19T13:42:44;25.90;;;23.30;;
21426;SDS011;10874;49.452;11.050;2022-08-19T13:45:13;27.03;;;24.23;;
21426;SDS011;10874;49.452;11.050;2022-08-19T13:47:41;25.50;;;23.10;;
21426;SDS011;10874;49.452;11.050;2022-08-19T13:50:12;24.03;;;21.53;;
21426;SDS011;10874;49.452;11.050;2022-08-19T13:52:39;27.10;;;24.40;;
21426;SDS011;10874;49.452;11.050;2022-08-19T13:55:07;27.87;;;25.17;;
21426;SDS011;10874;49.452;11.050;2022-08-19T13:57:34;26.17;;;23.57;;
21426;SDS011;10874;49.452;11.050;2022-08-19T14:00:03;28.90;;;26.00;;
21426;SDS011;10874;49.452;11.050;2022-08-19T14:02:30;25.73;;;23.27;;
21426;SDS011;10874;49.452;11.050;2022-08-19T14:04:57;27.50;;;24.80;;
21426;SDS011;10874;49.452;11.050;2022-08-19T14:07:25;27.63;;;24.97;;
21426;SDS011;10874;49.452;11.050;2022-08-19T14:09:52;27.47;;;24.57;;
21426;SDS011;10874;49.452;11.050;2022-08-19T14:12:19;27.20;;;24.50;;
21426;SDS011;10874;49.452;11.050;2022-08-19T14:14:54;26.90;;;24.30;;
21426;SDS011;10874;49.452;11.050;2022-08-19T14:17:22;30.57;;;27.37;;
21426;SDS011;10874;49.452;11.050;2022-08-19T14:19:49;30.67;;;27.67;;
21426;SDS011;10874;49.452;11.050;2022-08-19T14:22:16;30.90;;;27.80;;
21426;SDS011;10874;49.452;11.050;2022-08-19T14:24:48;25.70;;;23.30;;
21426;SDS011;10874;49.452;11.050;2022-08-19T14:27:14;22.97;;;20.77;;
21426;SDS011;10874;49.452;11.050;2022-08-19T14:29:41;23.70;;;21.27;;
21426;SDS011;10874;49.452;11.050;2022-08-19T14:32:08;21.37;;;19.30;;